Time;durP1;ratioP1;P1;durP2;ratioP2;P2;SDS_P1;SDS_P2;PMS_P1;PMS_P2;Temp;Humidity;BMP_temperature;BMP_pressure;BME280_temperature;BME280_humidity;BME280_pressure;Samples;Min_cycle;Max_cycle;Signal;HPM_P1;HPM_P2
2021/12/17 00:03:07;;;;;;;434.23;326.92;;;;;;;24.02;39.99;103240.75;5064412;28;20501;-42
2021/12/17 00:05:12;;;;;;;439.05;328.38;;;;;;;23.96;39.77;103243.97;5063546;28;20044;-44
2021/12/17 00:07:41;;;;;;;432.27;324.67;;;;;;;23.91;39.99;103242.81;5064328;28;20493;-42
2021/12/17 00:10:13;;;;;;;434.63;326.90;;;;;;;23.94;39.87;103239.47;5064625;28;20440;-42
2021/12/17 00:12:46;;;;;;;434.05;328.42;;;;;;;23.93;40.06;103240.28;5064110;28;20058;-42
2021/12/17 00:15:14;;;;;;;443.85;329.80;;;;;;;23.90;40.42;103242.75;5064089;28;20032;-42
2021/12/17 00:17:53;;;;;;;444.35;332.35;;;;;;;23.94;40.20;103242.09;5063707;28;20032;-43
2021/12/17 00:48:46;;;;;;;442.02;330.55;;;;;;;23.90;39.99;103234.88;5058995;28;20037;-43
2021/12/17 00:53:39;;;;;;;436.83;329.45;;;;;;;23.95;39.88;103226.41;5059850;28;20035;-43
2021/12/17 00:56:08;;;;;;;440.80;330.63;;;;;;;23.89;40.10;103222.59;5063279;28;20051;-42
2021/12/17 00:58:36;;;;;;;435.42;331.42;;;;;;;23.87;39.96;103224.25;5063427;28;20036;-42
2021/12/17 01:01:05;;;;;;;437.92;330.48;;;;;;;23.86;39.92;103223.34;5062652;28;20420;-42
2021/12/17 01:03:34;;;;;;;447.38;329.48;;;;;;;23.82;39.79;103218.78;5063218;28;20028;-42
2021/12/17 01:06:02;;;;;;;432.83;326.67;;;;;;;23.80;40.18;103223.94;5062402;28;20051;-42
2021/12/17 01:08:31;;;;;;;437.70;329.40;;;;;;;23.77;40.11;103221.19;5063212;28;20048;-42
2021/12/17 01:11:00;;;;;;;452.23;333.40;;;;;;;23.78;40.20;103212.50;5063656;28;20037;-42
2021/12/17 01:13:29;;;;;;;452.70;336.42;;;;;;;23.80;40.40;103215.19;5063446;28;20024;-42
2021/12/17 01:15:58;;;;;;;445.98;331.17;;;;;;;23.77;40.05;103215.94;5063306;28;20032;-42
2021/12/17 01:18:40;;;;;;;448.70;332.45;;;;;;;23.79;40.15;103218.63;5063172;28;20113;-41
2021/12/17 01:21:26;;;;;;;439.10;334.25;;;;;;;23.80;40.29;103209.94;5063487;28;20028;-42
2021/12/17 01:35:39;;;;;;;451.70;336.98;;;;;;;23.85;40.06;103213.69;5062349;28;20407;-42
2021/12/17 01:43:03;;;;;;;444.00;333.05;;;;;;;23.77;39.73;103204.53;5062988;28;20028;-42
2021/12/17 01:45:37;;;;;;;455.40;326.73;;;;;;;23.77;39.88;103197.59;5063161;28;20501;-42
2021/12/17 01:48:11;;;;;;;452.77;331.63;;;;;;;23.80;40.27;103194.22;5063196;28;20121;-42
2021/12/17 01:56:29;;;;;;;446.67;336.17;;;;;;;23.79;39.76;103182.84;5058984;28;20429;-43
2021/12/17 01:59:23;;;;;;;449.38;334.98;;;;;;;23.75;40.13;103191.38;5063151;28;20020;-43
2021/12/17 02:01:46;;;;;;;455.08;334.02;;;;;;;23.75;40.34;103186.13;5062854;28;20034;-42
2021/12/17 02:04:14;;;;;;;442.23;336.85;;;;;;;23.74;40.24;103180.81;5063180;28;20040;-42
2021/12/17 02:06:43;;;;;;;450.58;336.77;;;;;;;23.75;40.08;103179.97;5062791;28;20016;-43
2021/12/17 02:09:41;;;;;;;438.77;331.73;;;;;;;23.76;40.05;103185.31;5062238;28;20048;-43
2021/12/17 02:28:53;;;;;;;443.33;333.70;;;;;;;23.70;39.87;103184.09;5057637;28;20044;-44
2021/12/17 02:33:52;;;;;;;426.00;312.73;;;;;;;23.75;39.73;103179.97;5064487;28;20025;-42
2021/12/17 02:36:24;;;;;;;428.42;323.05;;;;;;;23.79;39.56;103187.16;5066158;28;20493;-42
2021/12/17 02:39:04;;;;;;;433.00;316.33;;;;;;;23.73;39.71;103184.25;5066302;28;20028;-42
2021/12/17 02:47:07;;;;;;;414.75;310.75;;;;;;;23.70;39.64;103181.50;5061943;28;20047;-42
2021/12/17 02:49:36;;;;;;;411.40;300.55;;;;;;;23.73;39.48;103186.88;5065511;28;20043;-42
2021/12/17 02:52:06;;;;;;;410.85;299.95;;;;;;;23.78;39.39;103186.28;5064659;28;20059;-44
2021/12/17 02:54:37;;;;;;;408.83;303.40;;;;;;;23.77;39.21;103178.31;5064893;28;20481;-42
2021/12/17 02:57:06;;;;;;;412.50;302.85;;;;;;;23.78;39.23;103178.41;5065522;28;21123;-43
2021/12/17 02:59:37;;;;;;;401.95;295.73;;;;;;;23.71;39.32;103171.06;5064114;28;20107;-43
2021/12/17 03:02:07;;;;;;;398.45;293.13;;;;;;;23.77;39.19;103168.75;5066042;28;20028;-43
2021/12/17 03:04:36;;;;;;;395.10;286.55;;;;;;;23.67;39.17;103164.78;5065888;28;20080;-45
2021/12/17 03:07:05;;;;;;;393.45;284.95;;;;;;;23.72;38.97;103170.25;5065731;28;20049;-43
2021/12/17 03:10:03;;;;;;;394.30;283.88;;;;;;;23.69;39.45;103164.84;5065610;28;20082;-42
2021/12/17 03:12:29;;;;;;;386.42;275.77;;;;;;;23.68;39.47;103157.81;5065067;28;20458;-43
2021/12/17 03:15:06;;;;;;;400.48;285.88;;;;;;;23.71;39.23;103155.34;5063654;28;20028;-43
2021/12/17 03:25:41;;;;;;;384.67;273.85;;;;;;;23.71;39.06;103141.34;5058394;28;20098;-42
2021/12/17 03:28:09;;;;;;;375.35;268.33;;;;;;;23.66;38.93;103149.00;5064747;28;20028;-42
2021/12/17 03:30:38;;;;;;;372.60;270.02;;;;;;;23.63;39.45;103148.84;5063596;28;20024;-43
2021/12/17 03:33:06;;;;;;;384.42;271.00;;;;;;;23.67;39.30;103142.91;5065010;28;20036;-41
2021/12/17 03:35:35;;;;;;;380.60;276.25;;;;;;;23.62;39.38;103142.69;5064841;28;20123;-42
2021/12/17 03:38:04;;;;;;;387.85;275.38;;;;;;;23.61;39.19;103140.00;5064840;28;20450;-42
2021/12/17 03:40:33;;;;;;;389.23;276.15;;;;;;;23.63;39.09;103138.38;5064658;28;20020;-42
2021/12/17 03:43:04;;;;;;;366.35;268.85;;;;;;;23.60;39.04;103140.81;5064974;28;20035;-42
2021/12/17 03:45:33;;;;;;;368.75;264.48;;;;;;;23.58;39.12;103134.59;5064894;28;20470;-43
2021/12/17 03:48:01;;;;;;;360.25;263.48;;;;;;;23.64;39.03;103135.81;5064967;28;20044;-42
2021/12/17 03:50:36;;;;;;;373.25;266.25;;;;;;;23.62;38.83;103132.22;5064656;28;20067;-42
2021/12/17 03:53:06;;;;;;;354.42;257.98;;;;;;;23.55;39.02;103130.13;5064742;28;20915;-42
2021/12/17 03:55:34;;;;;;;362.80;260.45;;;;;;;23.55;39.23;103132.75;5064669;28;20143;-42
2021/12/17 03:58:03;;;;;;;363.35;263.98;;;;;;;23.64;39.02;103124.44;5063153;28;20032;-42
2021/12/17 04:00:32;;;;;;;359.42;259.95;;;;;;;23.59;38.94;103134.66;5064841;28;20478;-42
2021/12/17 04:03:01;;;;;;;356.48;254.48;;;;;;;23.48;39.31;103144.66;5064653;28;20098;-42
2021/12/17 04:05:30;;;;;;;366.95;257.35;;;;;;;23.49;39.47;103143.81;5064782;28;20029;-42
2021/12/17 04:07:59;;;;;;;363.00;261.40;;;;;;;23.43;39.65;103130.41;5064084;28;20079;-42
2021/12/17 04:10:30;;;;;;;367.40;261.42;;;;;;;23.50;39.53;103132.50;5063723;28;20032;-42
2021/12/17 04:13:13;;;;;;;369.77;265.48;;;;;;;23.58;39.18;103135.50;5064053;28;20055;-42
2021/12/17 04:15:43;;;;;;;368.20;261.90;;;;;;;23.62;38.88;103124.34;5064229;28;20492;-42
2021/12/17 04:18:12;;;;;;;366.35;264.27;;;;;;;23.59;38.97;103123.31;5064558;28;20029;-42
2021/12/17 04:20:40;;;;;;;371.45;263.60;;;;;;;23.64;38.88;103129.69;5064494;28;20025;-42
2021/12/17 04:23:09;;;;;;;368.38;262.85;;;;;;;23.67;39.08;103125.47;5064310;28;20028;-42
2021/12/17 04:25:38;;;;;;;370.48;258.52;;;;;;;23.73;38.75;103124.00;5064207;28;20025;-42
2021/12/17 04:28:06;;;;;;;356.27;256.58;;;;;;;23.68;38.79;103121.13;5064088;28;20482;-42
2021/12/17 04:30:35;;;;;;;363.08;256.98;;;;;;;23.72;38.89;103119.56;5061960;28;20257;-42
2021/12/17 04:33:04;;;;;;;374.23;259.17;;;;;;;23.71;38.49;103113.41;5063969;28;20020;-42
2021/12/17 04:35:32;;;;;;;365.42;259.75;;;;;;;23.69;38.84;103111.56;5063946;28;20025;-43
2021/12/17 04:38:03;;;;;;;368.90;258.63;;;;;;;23.59;38.77;103118.94;5063913;28;20083;-42
2021/12/17 04:40:32;;;;;;;358.88;252.43;;;;;;;23.53;39.33;103116.06;5064011;28;20059;-43
2021/12/17 04:43:15;;;;;;;350.70;250.93;;;;;;;23.54;39.02;103119.56;5063570;28;20029;-43
2021/12/17 04:45:53;;;;;;;345.98;245.73;;;;;;;23.61;38.74;103119.03;5063764;28;20123;-42
2021/12/17 04:59:31;;;;;;;313.75;224.30;;;;;;;23.60;38.61;103132.97;5051730;28;20044;-42
2021/12/17 05:02:01;;;;;;;314.38;229.88;;;;;;;23.53;38.85;103126.53;5063222;28;20035;-43
2021/12/17 05:04:30;;;;;;;307.17;223.00;;;;;;;23.59;38.58;103131.16;5063299;28;20028;-43
2021/12/17 05:06:59;;;;;;;302.10;215.57;;;;;;;23.58;38.61;103113.66;5063212;28;20090;-42
2021/12/17 05:09:40;;;;;;;278.52;209.95;;;;;;;23.53;38.91;103123.91;5063062;28;20059;-42
2021/12/17 05:18:30;;;;;;;267.45;198.50;;;;;;;23.49;38.72;103122.88;5056944;28;20558;-43
2021/12/17 05:20:45;;;;;;;277.63;199.32;;;;;;;23.52;38.40;103115.13;5059419;28;20055;-43
2021/12/17 05:23:12;;;;;;;256.50;193.82;;;;;;;23.50;38.70;103119.41;5063292;28;20033;-42
2021/12/17 05:25:41;;;;;;;270.10;196.38;;;;;;;23.46;38.83;103124.41;5063492;28;20025;-43
2021/12/17 05:28:10;;;;;;;263.63;193.00;;;;;;;23.45;38.68;103120.91;5063131;28;20048;-42
2021/12/17 05:30:40;;;;;;;265.42;190.88;;;;;;;23.44;38.75;103116.50;5062982;28;20056;-43
2021/12/17 05:33:09;;;;;;;267.08;192.40;;;;;;;23.51;38.29;103121.19;5061743;28;20467;-44
2021/12/17 05:35:37;;;;;;;257.38;191.02;;;;;;;23.51;38.49;103115.97;5062930;28;20063;-42
2021/12/17 05:38:06;;;;;;;256.25;187.82;;;;;;;23.52;38.40;103125.63;5063275;28;20485;-43
2021/12/17 05:40:35;;;;;;;274.73;197.82;;;;;;;23.61;38.30;103124.28;5062805;28;20459;-42
2021/12/17 05:43:05;;;;;;;254.13;193.38;;;;;;;23.49;38.15;103121.97;5062696;28;20115;-42
2021/12/17 05:45:36;;;;;;;270.02;194.73;;;;;;;23.54;38.42;103127.41;5063177;28;20442;-42
2021/12/17 05:48:08;;;;;;;257.00;182.82;;;;;;;23.46;38.56;103120.09;5062820;28;20036;-41
2021/12/17 05:50:39;;;;;;;246.55;181.38;;;;;;;23.34;38.71;103122.09;5063205;28;20059;-42
2021/12/17 05:53:08;;;;;;;238.18;176.57;;;;;;;23.47;38.29;103120.97;5062131;28;20112;-42
2021/12/17 05:55:38;;;;;;;235.35;172.68;;;;;;;23.50;38.08;103127.25;5062475;28;20111;-43
2021/12/17 05:58:07;;;;;;;241.80;178.60;;;;;;;23.56;38.28;103121.44;5063127;28;20028;-42
2021/12/17 06:00:38;;;;;;;240.73;178.93;;;;;;;23.62;37.85;103119.09;5062727;28;20060;-42
2021/12/17 06:03:06;;;;;;;239.45;171.45;;;;;;;23.47;37.94;103111.41;5063736;28;20028;-42
2021/12/17 06:05:35;;;;;;;242.25;170.40;;;;;;;23.45;38.18;103122.63;5066622;28;20033;-42
2021/12/17 06:08:04;;;;;;;238.95;175.52;;;;;;;23.50;38.24;103116.78;5066743;28;20450;-44
2021/12/17 06:10:33;;;;;;;243.80;176.45;;;;;;;23.43;38.28;103119.03;5066906;28;20055;-44
2021/12/17 06:13:02;;;;;;;242.93;177.48;;;;;;;23.50;37.96;103118.50;5066283;28;20028;-42
2021/12/17 06:15:30;;;;;;;241.07;175.02;;;;;;;23.52;38.30;103125.63;5066658;28;20776;-43
2021/12/17 06:17:57;;;;;;;239.18;176.35;;;;;;;23.56;37.94;103124.06;5066314;28;20397;-42
2021/12/17 06:20:26;;;;;;;236.57;176.70;;;;;;;23.52;38.22;103114.25;5064509;28;20051;-43
2021/12/17 06:22:55;;;;;;;242.65;175.32;;;;;;;23.46;38.35;103119.19;5065750;28;20033;-42
2021/12/17 06:25:24;;;;;;;239.15;179.57;;;;;;;23.48;38.18;103112.31;5066667;28;20040;-43
2021/12/17 06:27:52;;;;;;;244.20;175.95;;;;;;;23.52;37.84;103112.53;5065171;28;20463;-42
2021/12/17 06:30:21;;;;;;;238.52;176.02;;;;;;;23.51;37.94;103115.97;5066597;28;20029;-42
2021/12/17 06:32:49;;;;;;;236.95;179.40;;;;;;;23.48;38.14;103118.47;5066160;28;20441;-42
2021/12/17 06:35:18;;;;;;;247.85;172.70;;;;;;;23.52;38.03;103116.88;5066288;28;20025;-42
2021/12/17 06:37:46;;;;;;;234.95;175.40;;;;;;;23.46;38.20;103117.47;5066255;28;20028;-41
2021/12/17 06:40:15;;;;;;;245.05;178.95;;;;;;;23.48;37.80;103118.47;5066182;28;20029;-41
2021/12/17 06:42:45;;;;;;;240.15;180.02;;;;;;;23.56;38.10;103126.69;5066216;28;20040;-42
2021/12/17 06:45:21;;;;;;;238.82;173.70;;;;;;;23.43;37.82;103119.03;5065752;28;20055;-41
2021/12/17 06:47:56;;;;;;;248.90;178.63;;;;;;;23.52;37.70;103120.38;5065693;28;20032;-42
2021/12/17 07:05:49;;;;;;;245.52;182.23;;;;;;;23.47;38.18;103127.13;5066062;28;20020;-44
2021/12/17 07:07:15;;;;;;;239.07;175.38;;;;;;;23.48;38.08;103125.41;5058314;28;21023;-43
2021/12/17 07:32:15;;;;;;;204.70;146.52;;;;;;;23.42;37.35;103107.66;5064899;28;20485;-45
2021/12/17 07:34:04;;;;;;;201.15;143.20;;;;;;;23.31;37.73;103107.13;5064827;28;20043;-42
2021/12/17 07:39:20;;;;;;;198.27;142.98;;;;;;;23.40;37.13;103108.41;5047661;28;20045;-42
2021/12/17 07:41:48;;;;;;;202.88;143.07;;;;;;;23.40;37.15;103105.81;5065031;28;20028;-42
2021/12/17 07:44:17;;;;;;;184.50;133.98;;;;;;;23.38;37.52;103104.81;5064922;28;20021;-42
2021/12/17 07:46:45;;;;;;;186.45;130.43;;;;;;;23.46;36.80;103104.38;5064940;28;20040;-42
2021/12/17 07:49:13;;;;;;;176.52;127.55;;;;;;;23.33;37.53;103100.25;5065039;28;20097;-44
2021/12/17 07:51:41;;;;;;;184.65;129.23;;;;;;;23.35;37.39;103095.06;5064379;28;20037;-47
2021/12/17 07:54:10;;;;;;;184.70;129.00;;;;;;;23.37;37.21;103093.44;5063203;28;20186;-42
2021/12/17 07:56:39;;;;;;;176.82;127.72;;;;;;;23.27;37.66;103099.03;5064726;28;20028;-42
2021/12/17 07:59:08;;;;;;;176.02;128.85;;;;;;;23.25;37.83;103096.34;5064096;28;20118;-44
2021/12/17 08:01:36;;;;;;;187.00;130.48;;;;;;;23.25;37.62;103095.44;5064737;28;20417;-44
2021/12/17 08:04:04;;;;;;;178.88;126.55;;;;;;;23.30;37.92;103088.72;5064701;28;20028;-43
2021/12/17 08:06:34;;;;;;;195.88;137.02;;;;;;;23.30;37.40;103093.97;5064301;28;20066;-43
2021/12/17 08:09:03;;;;;;;191.05;132.98;;;;;;;23.23;37.17;103081.38;5063824;28;20193;-43
2021/12/17 08:11:37;;;;;;;187.20;129.32;;;;;;;23.19;37.81;103088.16;5064255;28;20047;-42
2021/12/17 08:14:10;;;;;;;181.85;128.05;;;;;;;23.35;37.45;103087.22;5064398;28;20059;-42
2021/12/17 08:16:47;;;;;;;188.00;132.68;;;;;;;23.35;37.45;103079.34;5064514;28;20071;-43
2021/12/17 08:25:10;;;;;;;187.25;132.55;;;;;;;23.41;37.46;103073.56;5060260;28;20051;-46
2021/12/17 08:28:20;;;;;;;192.02;132.45;;;;;;;23.36;37.61;103075.91;5063293;28;20093;-46
2021/12/17 08:30:27;;;;;;;194.70;136.32;;;;;;;23.37;37.58;103072.47;5060267;28;20072;-50
2021/12/17 08:32:55;;;;;;;183.52;132.02;;;;;;;23.47;37.38;103074.75;5062960;28;20047;-48
2021/12/17 08:35:24;;;;;;;183.35;129.70;;;;;;;23.43;37.20;103070.16;5064029;28;20025;-48
2021/12/17 08:37:53;;;;;;;184.95;133.05;;;;;;;23.48;37.44;103059.91;5062376;28;20298;-45
2021/12/17 08:40:26;;;;;;;194.00;132.52;;;;;;;23.47;37.01;103063.34;5063325;28;20036;-42
2021/12/17 08:42:55;;;;;;;197.30;137.07;;;;;;;23.43;37.34;103069.25;5062399;28;20474;-46
2021/12/17 08:45:24;;;;;;;192.73;135.95;;;;;;;23.47;37.14;103059.03;5063906;28;20158;-47
2021/12/17 08:47:52;;;;;;;188.25;128.45;;;;;;;23.55;37.19;103053.25;5063630;28;20028;-46
2021/12/17 08:50:21;;;;;;;181.82;125.45;;;;;;;23.63;36.52;103057.13;5063520;28;20029;-46
2021/12/17 08:52:49;;;;;;;171.27;121.88;;;;;;;23.63;36.81;103062.38;5063329;28;20033;-46
2021/12/17 08:55:18;;;;;;;182.68;128.73;;;;;;;23.65;36.64;103064.25;5062552;28;20809;-46
2021/12/17 08:57:46;;;;;;;177.15;123.20;;;;;;;23.77;36.69;103068.25;5063793;28;20052;-46
2021/12/17 09:00:15;;;;;;;173.52;123.45;;;;;;;23.69;36.47;103064.38;5061404;28;20029;-48
2021/12/17 09:02:43;;;;;;;169.80;116.95;;;;;;;23.71;36.26;103075.84;5063430;28;20558;-45
2021/12/17 09:05:12;;;;;;;167.82;115.88;;;;;;;23.71;36.71;103073.22;5063647;28;20052;-42
2021/12/17 09:07:40;;;;;;;151.20;106.80;;;;;;;23.71;36.40;103075.84;5063349;28;20093;-43
2021/12/17 09:10:10;;;;;;;155.38;107.32;;;;;;;23.70;36.57;103069.69;5063382;28;20426;-42
2021/12/17 09:12:41;;;;;;;151.07;104.70;;;;;;;23.70;36.19;103074.94;5063329;28;20028;-42
2021/12/17 09:15:09;;;;;;;133.35;97.95;;;;;;;23.70;36.42;103072.31;5063134;28;20390;-45
2021/12/17 09:17:38;;;;;;;141.15;96.60;;;;;;;23.79;36.02;103072.75;5063003;28;20028;-43
2021/12/17 09:20:06;;;;;;;137.20;95.38;;;;;;;23.81;36.11;103075.44;5063232;28;20025;-45
2021/12/17 09:22:35;;;;;;;127.00;88.85;;;;;;;23.82;36.31;103075.53;5063075;28;20367;-42
2021/12/17 09:25:04;;;;;;;127.80;85.45;;;;;;;23.82;36.26;103078.16;5062991;28;20432;-42
2021/12/17 09:27:32;;;;;;;128.38;88.82;;;;;;;23.78;36.23;103068.34;5063391;28;20093;-46
2021/12/17 09:30:01;;;;;;;126.55;85.50;;;;;;;23.86;35.83;103078.28;5063364;28;20044;-43
2021/12/17 09:32:30;;;;;;;122.07;84.15;;;;;;;23.89;35.74;103075.81;5063230;28;20020;-43
2021/12/17 09:34:58;;;;;;;122.72;82.20;;;;;;;23.91;35.77;103076.78;5063163;28;20028;-43
2021/12/17 09:37:27;;;;;;;110.00;79.97;;;;;;;23.87;35.92;103075.75;5063060;28;20032;-43
2021/12/17 09:39:55;;;;;;;110.30;77.85;;;;;;;23.88;35.85;103085.41;5065788;28;20067;-45
2021/12/17 09:42:24;;;;;;;110.95;78.40;;;;;;;23.96;35.77;103076.19;5066133;28;20031;-43
2021/12/17 09:44:52;;;;;;;115.75;79.13;;;;;;;23.99;35.61;103082.41;5067175;28;20478;-42
2021/12/17 09:47:21;;;;;;;103.57;72.45;;;;;;;23.99;35.69;103077.16;5067372;28;20048;-43
2021/12/17 09:49:55;;;;;;;105.43;72.72;;;;;;;23.99;35.66;103078.09;5067115;28;20111;-43
2021/12/17 09:52:24;;;;;;;104.93;69.32;;;;;;;24.03;35.55;103073.88;5065953;28;20047;-44
2021/12/17 09:54:55;;;;;;;101.82;70.97;;;;;;;24.01;35.70;103080.75;5066942;28;20440;-42
2021/12/17 09:57:25;;;;;;;104.95;71.68;;;;;;;24.00;35.89;103073.72;5066051;28;20029;-42
2021/12/17 09:59:56;;;;;;;100.75;68.38;;;;;;;23.93;36.21;103080.38;5066794;28;20094;-42
2021/12/17 10:02:24;;;;;;;101.47;69.75;;;;;;;23.97;36.15;103077.09;5067079;28;20094;-42
2021/12/17 10:04:56;;;;;;;97.90;65.85;;;;;;;23.97;35.80;103071.88;5066920;28;20081;-43
2021/12/17 10:07:27;;;;;;;92.97;65.13;;;;;;;23.85;36.34;103077.38;5066343;28;20074;-43
2021/12/17 10:09:57;;;;;;;95.75;66.03;;;;;;;23.89;36.39;103081.97;5066370;28;20048;-42
2021/12/17 10:12:27;;;;;;;99.60;67.55;;;;;;;23.99;36.06;103083.31;5066403;28;20090;-43
2021/12/17 10:15:05;;;;;;;111.28;73.63;;;;;;;23.99;36.04;103075.47;5065090;28;20433;-42
2021/12/17 10:17:35;;;;;;;118.35;80.30;;;;;;;23.96;36.43;103080.53;5066872;28;20028;-42
2021/12/17 10:20:07;;;;;;;128.15;82.75;;;;;;;23.91;36.17;103072.41;5065416;28;20142;-42
2021/12/17 10:22:35;;;;;;;130.98;87.53;;;;;;;23.91;36.32;103082.00;5066280;28;20044;-42
2021/12/17 10:25:08;;;;;;;152.38;95.85;;;;;;;23.99;36.42;103079.78;5065926;28;20039;-42
2021/12/17 10:27:41;;;;;;;150.38;102.53;;;;;;;24.01;36.66;103073.78;5066557;28;20025;-42
2021/12/17 10:30:13;;;;;;;162.40;107.07;;;;;;;24.14;36.29;103071.75;5065898;28;20025;-42
2021/12/17 10:32:45;;;;;;;173.35;112.10;;;;;;;24.04;36.27;103066.06;5066098;28;20032;-42
2021/12/17 10:35:17;;;;;;;180.60;116.57;;;;;;;24.06;36.82;103071.41;5066514;28;20043;-42
2021/12/17 10:37:50;;;;;;;188.15;121.47;;;;;;;24.05;36.92;103065.22;5066302;28;20271;-42
2021/12/17 10:40:22;;;;;;;180.18;118.30;;;;;;;24.09;36.58;103067.19;5065889;28;20044;-42
2021/12/17 10:43:00;;;;;;;186.23;124.45;;;;;;;24.08;36.50;103070.63;5065919;28;20040;-42
2021/12/17 10:45:31;;;;;;;196.90;129.63;;;;;;;24.03;36.54;103060.75;5066038;28;20036;-42
2021/12/17 10:48:33;;;;;;;204.82;132.50;;;;;;;24.02;36.81;103062.47;5064604;28;20032;-41
2021/12/17 10:51:20;;;;;;;212.50;135.52;;;;;;;24.09;36.86;103054.06;5064583;28;20764;-45
2021/12/17 10:53:54;;;;;;;198.55;133.95;;;;;;;24.03;37.05;103052.88;5062901;28;20637;-45
2021/12/17 10:56:24;;;;;;;206.10;138.23;;;;;;;24.05;36.94;103051.25;5065815;28;20267;-43
2021/12/17 10:58:54;;;;;;;211.05;142.82;;;;;;;24.12;37.14;103051.59;5065671;28;20123;-42
2021/12/17 11:01:44;;;;;;;225.15;147.52;;;;;;;24.14;37.13;103054.25;5066005;28;20542;-44
2021/12/17 11:04:32;;;;;;;217.90;148.13;;;;;;;24.12;36.83;103048.97;5065311;28;20778;-45
2021/12/17 11:07:07;;;;;;;224.25;149.60;;;;;;;24.07;36.75;103045.22;5059346;28;20052;-43
2021/12/17 11:09:37;;;;;;;229.52;155.65;;;;;;;23.92;37.13;103041.88;5064034;28;20036;-43
2021/12/17 11:12:27;;;;;;;233.18;153.82;;;;;;;23.94;37.10;103035.88;5065111;28;20047;-42
2021/12/17 11:15:06;;;;;;;243.98;160.20;;;;;;;24.06;36.64;103022.44;5065086;28;20497;-42
2021/12/17 11:17:34;;;;;;;242.80;162.90;;;;;;;24.08;37.19;103027.75;5065186;28;20036;-42
2021/12/17 11:20:07;;;;;;;249.48;166.00;;;;;;;24.05;36.98;103025.03;5065414;28;20047;-42
2021/12/17 11:22:38;;;;;;;242.02;162.27;;;;;;;24.11;36.83;103022.66;5065439;28;20470;-44
2021/12/17 11:25:05;;;;;;;253.98;167.60;;;;;;;24.11;37.16;103018.31;5064948;28;20020;-45
2021/12/17 11:27:35;;;;;;;249.55;169.50;;;;;;;24.05;37.03;103012.78;5064868;28;20053;-43
2021/12/17 11:30:06;;;;;;;247.15;168.63;;;;;;;24.15;36.96;103023.72;5064819;28;20525;-42
2021/12/17 11:32:35;;;;;;;246.82;171.10;;;;;;;24.11;37.16;103015.72;5065186;28;21076;-45
2021/12/17 11:35:05;;;;;;;271.20;171.77;;;;;;;24.13;36.87;103013.13;5063788;28;20074;-42
2021/12/17 11:37:33;;;;;;;246.90;170.43;;;;;;;24.06;37.01;103021.56;5065291;28;20016;-43
2021/12/17 11:40:07;;;;;;;255.02;170.65;;;;;;;24.09;36.88;103006.88;5064920;28;20032;-42
2021/12/17 11:43:15;;;;;;;263.08;177.55;;;;;;;24.06;37.04;103008.47;5064607;28;20033;-41
2021/12/17 11:45:56;;;;;;;255.73;179.40;;;;;;;24.10;37.33;103005.13;5061167;28;20058;-43
2021/12/17 11:48:27;;;;;;;259.50;178.43;;;;;;;24.15;37.29;103001.00;5063268;28;20472;-42
2021/12/17 11:51:16;;;;;;;261.52;183.60;;;;;;;24.16;36.97;103001.91;5064723;28;20111;-43
2021/12/17 11:53:55;;;;;;;269.30;186.80;;;;;;;24.11;37.36;103010.47;5064442;28;20131;-42
2021/12/17 11:56:44;;;;;;;278.38;186.07;;;;;;;24.10;37.25;102994.63;5064654;28;20024;-43
2021/12/17 11:59:33;;;;;;;274.20;182.93;;;;;;;23.96;37.48;102988.75;5058334;28;20039;-43
2021/12/17 12:02:16;;;;;;;258.20;184.77;;;;;;;23.97;37.28;102977.50;5063984;28;20032;-43
2021/12/17 12:04:51;;;;;;;265.40;181.27;;;;;;;23.94;37.59;102982.56;5064628;28;20543;-43
2021/12/17 12:07:23;;;;;;;278.88;190.85;;;;;;;24.06;37.55;102971.75;5064139;28;20236;-45
2021/12/17 12:09:59;;;;;;;268.27;183.88;;;;;;;24.03;37.67;102974.25;5062525;28;20036;-43
2021/12/17 12:12:31;;;;;;;269.38;185.75;;;;;;;23.96;37.59;102966.09;5063965;28;20037;-45
2021/12/17 12:15:19;;;;;;;273.02;191.25;;;;;;;24.04;37.51;102952.44;5064281;28;20108;-44
2021/12/17 12:18:08;;;;;;;262.92;179.70;;;;;;;24.05;37.36;102947.25;5064103;28;20390;-42
2021/12/17 12:20:57;;;;;;;265.77;186.18;;;;;;;24.11;37.38;102931.78;5060703;28;20064;-43
2021/12/17 12:23:26;;;;;;;274.75;190.63;;;;;;;24.11;37.41;102941.38;5062719;28;20048;-42
2021/12/17 12:26:04;;;;;;;274.38;189.45;;;;;;;24.01;37.66;102934.81;5063912;28;20063;-42
2021/12/17 12:28:47;;;;;;;258.92;181.68;;;;;;;24.01;37.32;102936.56;5063867;28;20036;-43
2021/12/17 12:31:19;;;;;;;265.48;184.88;;;;;;;23.94;37.49;102948.47;5063654;28;20032;-42
2021/12/17 12:34:07;;;;;;;277.35;189.52;;;;;;;23.97;37.46;102943.41;5063953;28;20086;-42
2021/12/17 12:36:58;;;;;;;269.38;186.65;;;;;;;23.99;37.40;102930.34;5044641;28;20451;-43
2021/12/17 12:39:29;;;;;;;283.58;192.55;;;;;;;24.06;37.35;102935.06;5063383;28;21037;-45
2021/12/17 12:42:02;;;;;;;276.58;190.63;;;;;;;24.09;37.18;102917.72;5063672;28;20082;-45
2021/12/17 12:44:49;;;;;;;281.80;192.70;;;;;;;23.96;37.73;102929.38;5063689;28;20714;-42
2021/12/17 12:47:26;;;;;;;269.30;186.32;;;;;;;23.99;37.86;102918.16;5063784;28;20107;-42
2021/12/17 12:50:07;;;;;;;281.52;198.85;;;;;;;23.98;37.47;102924.22;5063630;28;20465;-42
2021/12/17 12:52:59;;;;;;;278.67;198.25;;;;;;;23.96;37.84;102923.22;5062978;28;20055;-45
2021/12/17 12:55:30;;;;;;;274.42;192.85;;;;;;;24.00;37.45;102912.06;5062237;28;20028;-44
2021/12/17 12:58:02;;;;;;;282.38;197.68;;;;;;;23.97;37.70;102919.81;5063389;28;20024;-42
2021/12/17 13:00:32;;;;;;;285.98;200.80;;;;;;;23.97;37.68;102922.44;5063439;28;20043;-42
2021/12/17 13:03:04;;;;;;;295.10;204.45;;;;;;;23.91;38.17;102914.25;5063494;28;20020;-42
2021/12/17 13:05:34;;;;;;;298.48;206.07;;;;;;;23.94;38.07;102919.63;5062944;28;20031;-43
2021/12/17 13:08:05;;;;;;;289.70;203.45;;;;;;;23.89;37.82;102913.28;5063260;28;20375;-42
2021/12/17 13:10:40;;;;;;;294.70;207.85;;;;;;;23.92;37.71;102909.06;5062599;28;20032;-43
2021/12/17 13:13:15;;;;;;;;;;;;;;;24.00;37.63;102909.44;5063138;28;20102;-42
2021/12/17 13:15:51;;;;;;;285.42;201.20;;;;;;;23.99;37.97;102906.75;5063468;28;19938;-43
2021/12/17 13:21:36;;;;;;;289.85;199.40;;;;;;;23.95;37.95;102900.47;5063513;28;20033;-42
2021/12/17 13:24:15;;;;;;;306.05;207.18;;;;;;;23.87;37.89;102900.13;5062465;28;20093;-45
2021/12/17 13:26:45;;;;;;;;;;;;;;;23.94;38.14;102902.16;5063807;28;20040;-43
2021/12/17 13:29:21;;;;;;;294.27;208.48;;;;;;;23.90;38.05;102907.22;5062623;28;19912;-42
2021/12/17 13:31:53;;;;;;;282.95;205.80;;;;;;;23.92;37.86;102901.19;5061515;28;20501;-42
2021/12/17 13:34:59;;;;;;;298.42;207.80;;;;;;;23.88;38.04;102898.38;5061491;28;20024;-43
2021/12/17 13:37:28;;;;;;;;;;;;;;;23.96;38.08;102890.06;5063283;28;20028;-42
2021/12/17 13:40:08;;;;;;;289.63;205.60;;;;;;;23.91;38.30;102882.81;5061755;28;19920;-44
2021/12/17 13:42:40;;;;;;;308.00;209.20;;;;;;;23.88;38.04;102894.06;5062798;28;20522;-43
2021/12/17 13:45:13;;;;;;;299.73;207.32;;;;;;;23.90;38.26;102881.00;5061573;28;20036;-42
2021/12/17 13:47:45;;;;;;;298.42;215.02;;;;;;;23.82;38.37;102878.97;5063067;28;20036;-42
2021/12/17 13:50:20;;;;;;;301.45;212.30;;;;;;;23.79;38.18;102873.59;5062561;28;20494;-42
2021/12/17 13:52:58;;;;;;;288.52;206.95;;;;;;;23.92;37.82;102869.75;5062862;28;20028;-43